Time;durP1;ratioP1;P1;durP2;ratioP2;P2;SDS_P1;SDS_P2;PMS_P1;PMS_P2;Temp;Humidity;BMP_temperature;BMP_pressure;BME280_temperature;BME280_humidity;BME280_pressure;Samples;Min_cycle;Max_cycle;Signal;HPM_P1;HPM_P2
2024/04/19 00:00:51;;;;;;;11.60;5.20;;;;;;;;;;778717;181;720951;-70
2024/04/19 00:03:17;;;;;;;11.17;7.40;;;;;;;;;;770437;181;718567;-68
2024/04/19 00:05:43;;;;;;;9.33;6.77;;;;;;;;;;772696;180;816094;-69
2024/04/19 00:08:08;;;;;;;9.93;6.80;;;;;;;;;;776090;181;826785;-69
2024/04/19 00:10:34;;;;;;;9.10;7.10;;;;;;;;;;771488;181;917084;-70
2024/04/19 00:13:00;;;;;;;12.13;7.33;;;;;;;;;;771791;180;816651;-69
2024/04/19 00:15:26;;;;;;;10.93;7.60;;;;;;;;;;769875;181;765515;-69
2024/04/19 00:17:52;;;;;;;14.85;7.53;;;;;;;;;;764621;181;791875;-69
2024/04/19 00:20:18;;;;;;;13.53;8.20;;;;;;;;;;768295;180;821605;-71
2024/04/19 00:22:43;;;;;;;11.00;6.97;;;;;;;;;;771825;180;816530;-69
2024/04/19 00:25:09;;;;;;;10.80;6.63;;;;;;;;;;775474;181;710032;-69
2024/04/19 00:27:35;;;;;;;11.57;6.77;;;;;;;;;;770914;180;915663;-70
2024/04/19 00:30:01;;;;;;;9.67;6.47;;;;;;;;;;772139;178;918140;-69
2024/04/19 00:32:27;;;;;;;10.13;6.47;;;;;;;;;;773645;180;812986;-69
2024/04/19 00:34:53;;;;;;;11.13;6.80;;;;;;;;;;770616;180;899478;-70
2024/04/19 00:37:18;;;;;;;8.70;6.50;;;;;;;;;;774650;180;758404;-69
2024/04/19 00:39:44;;;;;;;10.40;6.80;;;;;;;;;;776058;180;832317;-69
2024/04/19 00:42:10;;;;;;;13.13;8.17;;;;;;;;;;770976;180;915995;-69
2024/04/19 00:44:36;;;;;;;16.77;9.10;;;;;;;;;;767248;180;814216;-69
2024/04/19 00:47:03;;;;;;;12.13;8.50;;;;;;;;;;772795;181;898008;-69
2024/04/19 00:49:28;;;;;;;10.17;7.00;;;;;;;;;;773990;180;919674;-71
2024/04/19 00:51:54;;;;;;;14.03;8.33;;;;;;;;;;767717;181;816928;-71
2024/04/19 00:54:19;;;;;;;9.83;7.40;;;;;;;;;;767838;180;817878;-70
2024/04/19 00:56:45;;;;;;;10.33;7.90;;;;;;;;;;776184;180;811518;-69
2024/04/19 00:59:11;;;;;;;12.80;7.28;;;;;;;;;;774594;180;659889;-70
2024/04/19 01:01:37;;;;;;;14.83;9.23;;;;;;;;;;763060;181;705413;-69
2024/04/19 01:04:03;;;;;;;11.03;8.47;;;;;;;;;;776240;181;804704;-71
2024/04/19 01:06:29;;;;;;;11.13;8.37;;;;;;;;;;773237;180;904049;-70
2024/04/19 01:08:55;;;;;;;9.57;7.60;;;;;;;;;;769910;181;918373;-70
2024/04/19 01:11:20;;;;;;;9.73;7.80;;;;;;;;;;771110;182;789072;-70
2024/04/19 01:13:47;;;;;;;11.93;8.10;;;;;;;;;;771933;180;813980;-70
2024/04/19 01:16:12;;;;;;;12.32;8.93;;;;;;;;;;772933;180;863528;-71
2024/04/19 01:18:38;;;;;;;11.43;7.10;;;;;;;;;;773141;180;916648;-71
2024/04/19 01:21:04;;;;;;;10.40;7.70;;;;;;;;;;762187;184;911905;-70
2024/04/19 01:23:30;;;;;;;11.80;8.20;;;;;;;;;;761151;182;787808;-72
2024/04/19 01:25:55;;;;;;;12.73;8.33;;;;;;;;;;762187;182;786573;-71
2024/04/19 01:28:21;;;;;;;13.90;7.87;;;;;;;;;;761530;183;698431;-71
2024/04/19 01:30:47;;;;;;;15.07;7.90;;;;;;;;;;774844;180;809805;-71
2024/04/19 01:33:14;;;;;;;10.15;7.50;;;;;;;;;;771412;181;814626;-72
2024/04/19 01:35:39;;;;;;;12.00;8.40;;;;;;;;;;772346;180;814769;-71
2024/04/19 01:38:05;;;;;;;11.53;8.50;;;;;;;;;;765583;180;811156;-70
2024/04/19 01:40:31;;;;;;;14.87;7.53;;;;;;;;;;771546;179;810257;-71
2024/04/19 01:42:56;;;;;;;11.00;6.77;;;;;;;;;;778424;180;741125;-71
2024/04/19 01:45:22;;;;;;;12.90;9.03;;;;;;;;;;770899;180;919907;-70
2024/04/19 01:47:48;;;;;;;17.00;8.20;;;;;;;;;;768656;180;739039;-71
2024/04/19 01:50:14;;;;;;;10.87;8.43;;;;;;;;;;772960;180;917227;-71
2024/04/19 01:52:40;;;;;;;15.93;9.50;;;;;;;;;;774947;180;712497;-70
2024/04/19 01:55:06;;;;;;;14.57;8.90;;;;;;;;;;772437;181;915685;-69
2024/04/19 01:57:31;;;;;;;11.13;7.60;;;;;;;;;;772277;180;716404;-72
2024/04/19 01:59:57;;;;;;;10.77;7.63;;;;;;;;;;779038;180;813948;-71
2024/04/19 02:02:24;;;;;;;13.80;9.20;;;;;;;;;;772046;180;811681;-69
2024/04/19 02:04:49;;;;;;;9.73;7.43;;;;;;;;;;766483;180;815635;-71
2024/04/19 02:07:15;;;;;;;11.00;7.80;;;;;;;;;;779487;180;679761;-70
2024/04/19 02:09:41;;;;;;;10.00;7.03;;;;;;;;;;770661;180;803195;-71
2024/04/19 02:12:06;;;;;;;14.07;9.43;;;;;;;;;;773786;180;889594;-71
2024/04/19 02:14:32;;;;;;;11.03;8.37;;;;;;;;;;772538;181;915750;-71
2024/04/19 02:16:58;;;;;;;13.47;7.73;;;;;;;;;;771222;180;791578;-71
2024/04/19 02:19:24;;;;;;;13.93;8.77;;;;;;;;;;771578;180;809230;-71
2024/04/19 02:21:50;;;;;;;12.33;8.00;;;;;;;;;;772685;180;770513;-71
2024/04/19 02:24:16;;;;;;;9.07;6.73;;;;;;;;;;766436;183;714391;-71
2024/04/19 02:26:41;;;;;;;10.25;8.18;;;;;;;;;;768940;180;914956;-71
2024/04/19 02:31:39;;;;;;;10.97;7.63;;;;;;;;;;773328;181;813709;-71
2024/04/19 02:34:05;;;;;;;12.00;8.30;;;;;;;;;;769536;181;814600;-71
2024/04/19 02:36:31;;;;;;;13.63;8.27;;;;;;;;;;770329;181;833052;-71
2024/04/19 02:38:56;;;;;;;11.15;7.65;;;;;;;;;;772535;181;778510;-69
2024/04/19 02:41:23;;;;;;;9.73;6.67;;;;;;;;;;775059;180;840194;-69
2024/04/19 02:43:48;;;;;;;12.80;8.57;;;;;;;;;;771544;181;821038;-71
2024/04/19 02:46:14;;;;;;;11.93;7.97;;;;;;;;;;765686;181;922337;-69
2024/04/19 02:48:40;;;;;;;9.43;7.27;;;;;;;;;;773890;180;784477;-68
2024/04/19 02:51:06;;;;;;;14.77;8.00;;;;;;;;;;771100;180;797683;-68
2024/04/19 02:53:32;;;;;;;9.40;6.43;;;;;;;;;;776719;178;813806;-69
2024/04/19 02:55:58;;;;;;;12.70;7.17;;;;;;;;;;779520;180;915353;-68
2024/04/19 02:58:23;;;;;;;12.13;8.00;;;;;;;;;;770200;180;918691;-68
2024/04/19 03:00:49;;;;;;;10.07;7.30;;;;;;;;;;770993;180;814351;-70
2024/04/19 03:03:15;;;;;;;9.67;7.10;;;;;;;;;;776106;180;830198;-69
2024/04/19 03:05:41;;;;;;;11.70;7.80;;;;;;;;;;773844;180;719544;-69
2024/04/19 03:08:07;;;;;;;8.97;6.97;;;;;;;;;;767225;180;732746;-69
2024/04/19 03:10:32;;;;;;;18.13;7.07;;;;;;;;;;768073;181;794728;-69
2024/04/19 03:12:58;;;;;;;9.93;6.63;;;;;;;;;;772754;180;812875;-70
2024/04/19 03:15:24;;;;;;;12.03;7.53;;;;;;;;;;768119;180;816301;-69
2024/04/19 03:17:50;;;;;;;11.12;7.72;;;;;;;;;;766745;180;894829;-70
2024/04/19 03:20:16;;;;;;;13.33;8.30;;;;;;;;;;772777;180;937346;-70
2024/04/19 03:22:43;;;;;;;9.77;7.00;;;;;;;;;;771700;181;814917;-68
2024/04/19 03:25:08;;;;;;;11.17;7.23;;;;;;;;;;770650;180;865275;-70
2024/04/19 03:27:33;;;;;;;10.50;7.73;;;;;;;;;;773331;180;709820;-69
2024/04/19 03:29:59;;;;;;;10.77;8.23;;;;;;;;;;769706;181;817781;-70
2024/04/19 03:32:25;;;;;;;10.47;7.17;;;;;;;;;;772025;180;715646;-69
2024/04/19 03:34:51;;;;;;;11.70;7.10;;;;;;;;;;777959;181;774588;-68
2024/04/19 03:37:17;;;;;;;12.33;7.73;;;;;;;;;;773621;181;704725;-70
2024/04/19 03:39:43;;;;;;;9.30;7.33;;;;;;;;;;773040;181;777671;-69
2024/04/19 03:42:10;;;;;;;13.05;6.90;;;;;;;;;;774678;180;668723;-71
2024/04/19 03:47:06;;;;;;;14.80;6.83;;;;;;;;;;767758;180;907448;-68
2024/04/19 03:49:32;;;;;;;11.20;6.93;;;;;;;;;;770737;180;769728;-69
2024/04/19 03:51:58;;;;;;;13.97;8.87;;;;;;;;;;777778;180;668549;-69
2024/04/19 03:54:24;;;;;;;14.03;7.80;;;;;;;;;;767386;180;731685;-70
2024/04/19 03:56:49;;;;;;;14.20;8.87;;;;;;;;;;773633;180;623580;-70
2024/04/19 03:59:15;;;;;;;21.53;7.47;;;;;;;;;;779438;180;616455;-70
2024/04/19 04:01:41;;;;;;;12.33;7.97;;;;;;;;;;773214;178;623058;-70
2024/04/19 04:04:07;;;;;;;12.93;7.50;;;;;;;;;;773985;180;643023;-70
2024/04/19 04:06:33;;;;;;;15.33;7.83;;;;;;;;;;776931;180;622751;-70
2024/04/19 04:08:59;;;;;;;10.53;6.67;;;;;;;;;;776204;180;816427;-69
2024/04/19 04:11:24;;;;;;;10.90;6.53;;;;;;;;;;774444;180;810278;-71
2024/04/19 04:13:50;;;;;;;11.90;7.00;;;;;;;;;;775577;180;693320;-71
2024/04/19 04:16:16;;;;;;;9.40;6.80;;;;;;;;;;775278;180;806416;-71
2024/04/19 04:18:42;;;;;;;10.53;7.27;;;;;;;;;;773149;180;750238;-71
2024/04/19 04:21:08;;;;;;;13.40;7.70;;;;;;;;;;774826;180;816464;-72
2024/04/19 04:23:34;;;;;;;14.03;7.10;;;;;;;;;;777724;180;666442;-71
2024/04/19 04:25:59;;;;;;;10.30;7.23;;;;;;;;;;774578;181;712379;-71
2024/04/19 04:34:56;;;;;;;11.43;7.72;;;;;;;;;;784090;170;792450;-71
2024/04/19 04:37:22;;;;;;;12.27;7.60;;;;;;;;;;769990;180;812411;-71
2024/04/19 04:39:48;;;;;;;8.70;6.67;;;;;;;;;;780029;178;815449;-70
2024/04/19 04:42:13;;;;;;;13.27;6.80;;;;;;;;;;774731;179;713629;-72
2024/04/19 04:44:39;;;;;;;10.60;7.37;;;;;;;;;;774093;180;810261;-72
2024/04/19 04:47:05;;;;;;;10.70;7.60;;;;;;;;;;780587;180;652838;-71
2024/04/19 04:49:31;;;;;;;10.73;6.47;;;;;;;;;;772320;177;814835;-72
2024/04/19 04:51:57;;;;;;;9.87;7.97;;;;;;;;;;777217;177;650538;-71
2024/04/19 04:54:23;;;;;;;12.07;7.67;;;;;;;;;;775965;180;620627;-72
2024/04/19 04:56:49;;;;;;;14.13;8.13;;;;;;;;;;781340;177;624893;-72
2024/04/19 04:59:15;;;;;;;9.63;7.00;;;;;;;;;;775968;177;632671;-72
2024/04/19 05:01:40;;;;;;;12.20;7.10;;;;;;;;;;775595;179;814915;-70
2024/04/19 05:04:06;;;;;;;8.90;6.63;;;;;;;;;;774829;180;811771;-72
2024/04/19 05:06:32;;;;;;;8.73;6.80;;;;;;;;;;773256;180;916956;-72
2024/04/19 05:08:58;;;;;;;13.50;7.10;;;;;;;;;;772327;180;847819;-74
2024/04/19 05:11:24;;;;;;;9.20;6.60;;;;;;;;;;778113;180;924041;-74
2024/04/19 05:13:50;;;;;;;10.37;6.63;;;;;;;;;;774341;179;895487;-73
2024/04/19 05:16:15;;;;;;;8.27;5.90;;;;;;;;;;774025;178;633503;-73
2024/04/19 05:18:41;;;;;;;9.17;7.03;;;;;;;;;;776109;178;671069;-73
2024/04/19 05:21:08;;;;;;;10.90;6.50;;;;;;;;;;773213;179;919065;-72
2024/04/19 05:23:33;;;;;;;9.07;7.15;;;;;;;;;;773974;177;825123;-73
2024/04/19 05:25:59;;;;;;;10.77;7.70;;;;;;;;;;772032;178;703648;-73
2024/04/19 05:28:25;;;;;;;12.63;8.57;;;;;;;;;;778867;179;772992;-72
2024/04/19 05:30:50;;;;;;;9.53;6.70;;;;;;;;;;772431;181;812168;-73
2024/04/19 05:33:16;;;;;;;11.37;7.83;;;;;;;;;;773706;177;917623;-74
2024/04/19 05:35:42;;;;;;;13.73;7.50;;;;;;;;;;778201;180;745292;-74
2024/04/19 05:38:08;;;;;;;10.75;7.30;;;;;;;;;;773626;178;732148;-73
2024/04/19 05:40:35;;;;;;;9.80;5.30;;;;;;;;;;773409;181;719080;-73
2024/04/19 05:43:00;;;;;;;8.57;5.73;;;;;;;;;;776386;180;678977;-74
2024/04/19 05:45:25;;;;;;;9.97;7.10;;;;;;;;;;778157;177;760131;-73
2024/04/19 05:47:51;;;;;;;9.27;6.50;;;;;;;;;;778842;178;695361;-70
2024/04/19 05:50:18;;;;;;;8.95;6.07;;;;;;;;;;779720;177;857290;-71
2024/04/19 05:52:44;;;;;;;10.83;5.73;;;;;;;;;;777484;177;813357;-70
2024/04/19 05:55:10;;;;;;;10.30;7.50;;;;;;;;;;772521;179;921316;-69
2024/04/19 05:57:35;;;;;;;6.53;4.80;;;;;;;;;;774092;177;815138;-70
2024/04/19 06:00:02;;;;;;;10.27;5.60;;;;;;;;;;774123;180;714740;-69
2024/04/19 06:02:27;;;;;;;7.57;4.50;;;;;;;;;;775375;177;905164;-69
2024/04/19 06:04:53;;;;;;;7.70;4.80;;;;;;;;;;772189;177;917031;-71
2024/04/19 06:07:22;;;;;;;6.77;4.67;;;;;;;;;;778746;177;814736;-71
2024/04/19 06:09:45;;;;;;;10.30;4.67;;;;;;;;;;775404;177;815233;-71
2024/04/19 06:12:10;;;;;;;6.93;5.13;;;;;;;;;;775359;177;685783;-72
2024/04/19 06:14:36;;;;;;;6.97;4.90;;;;;;;;;;778037;180;719238;-73
2024/04/19 06:17:02;;;;;;;8.30;5.35;;;;;;;;;;770381;177;917685;-73
2024/04/19 06:19:28;;;;;;;9.10;5.70;;;;;;;;;;769273;177;817788;-73
2024/04/19 06:21:54;;;;;;;6.90;5.03;;;;;;;;;;772380;180;691068;-73
2024/04/19 06:24:20;;;;;;;8.70;5.97;;;;;;;;;;772215;178;921470;-72
2024/04/19 06:29:56;;;;;;;7.85;5.45;;;;;;;;;;787161;173;866106;-73
2024/04/19 06:32:22;;;;;;;6.43;4.67;;;;;;;;;;762691;182;706154;-73
2024/04/19 06:34:48;;;;;;;6.63;4.90;;;;;;;;;;755540;184;812046;-74
2024/04/19 06:37:14;;;;;;;6.32;4.35;;;;;;;;;;767026;182;818205;-73
2024/04/19 06:39:40;;;;;;;8.13;4.23;;;;;;;;;;763814;182;891062;-73
2024/04/19 06:42:06;;;;;;;9.83;5.53;;;;;;;;;;768016;183;804020;-74
2024/04/19 06:44:32;;;;;;;9.23;5.47;;;;;;;;;;772462;182;687565;-74
2024/04/19 06:46:57;;;;;;;9.40;5.47;;;;;;;;;;770531;182;813113;-74
2024/04/19 06:49:23;;;;;;;9.07;5.23;;;;;;;;;;765892;182;804843;-74
2024/04/19 06:51:49;;;;;;;9.63;5.10;;;;;;;;;;768919;182;707388;-73
2024/04/19 06:54:15;;;;;;;6.40;4.53;;;;;;;;;;771704;182;708371;-71
2024/04/19 06:56:41;;;;;;;6.00;4.50;;;;;;;;;;764324;182;837182;-72
2024/04/19 06:59:08;;;;;;;14.00;6.93;;;;;;;;;;767190;179;849900;-71
2024/04/19 07:01:33;;;;;;;8.03;5.60;;;;;;;;;;769345;183;797121;-71
2024/04/19 07:03:59;;;;;;;9.77;5.63;;;;;;;;;;767892;182;648846;-71
2024/04/19 07:06:25;;;;;;;7.57;4.83;;;;;;;;;;766792;182;712375;-72
2024/04/19 07:08:51;;;;;;;11.40;5.23;;;;;;;;;;765853;182;920779;-73
2024/04/19 07:11:17;;;;;;;7.53;4.80;;;;;;;;;;770783;180;853772;-71
2024/04/19 07:13:46;;;;;;;7.43;5.23;;;;;;;;;;763844;182;717571;-72
2024/04/19 07:16:08;;;;;;;13.60;6.77;;;;;;;;;;765082;182;710231;-71
2024/04/19 07:18:34;;;;;;;13.37;5.70;;;;;;;;;;772158;183;716854;-69
2024/04/19 07:21:00;;;;;;;10.40;5.50;;;;;;;;;;765530;183;886429;-70
2024/04/19 07:23:26;;;;;;;8.75;5.35;;;;;;;;;;765461;182;771080;-71
2024/04/19 07:25:52;;;;;;;9.40;5.37;;;;;;;;;;770000;182;815106;-71
2024/04/19 07:28:18;;;;;;;7.93;5.87;;;;;;;;;;767430;182;810770;-70
2024/04/19 07:30:44;;;;;;;8.07;5.60;;;;;;;;;;768162;182;633338;-70
2024/04/19 07:33:09;;;;;;;10.00;5.80;;;;;;;;;;772452;182;622313;-69
2024/04/19 07:35:35;;;;;;;10.07;6.83;;;;;;;;;;769407;182;864134;-70
2024/04/19 07:38:01;;;;;;;11.57;6.50;;;;;;;;;;767485;182;679033;-69
2024/04/19 07:40:27;;;;;;;10.70;6.03;;;;;;;;;;766069;182;862173;-72
2024/04/19 07:42:53;;;;;;;7.50;5.62;;;;;;;;;;762947;183;891136;-70
2024/04/19 07:45:22;;;;;;;7.43;6.30;;;;;;;;;;761981;182;869202;-70
2024/04/19 07:47:44;;;;;;;8.73;5.68;;;;;;;;;;767203;182;774984;-69
2024/04/19 07:50:10;;;;;;;9.43;5.73;;;;;;;;;;766915;183;823681;-71
2024/04/19 07:52:36;;;;;;;7.53;5.20;;;;;;;;;;767863;183;711429;-71
2024/04/19 07:55:02;;;;;;;7.23;4.83;;;;;;;;;;766966;183;816529;-74
2024/04/19 07:57:28;;;;;;;6.72;3.97;;;;;;;;;;773573;182;696328;-74
2024/04/19 07:59:54;;;;;;;6.50;4.47;;;;;;;;;;767522;182;694266;-73
2024/04/19 08:02:20;;;;;;;6.43;3.97;;;;;;;;;;766977;182;816183;-68
2024/04/19 08:04:46;;;;;;;6.00;4.30;;;;;;;;;;773278;182;715734;-65
2024/04/19 08:07:11;;;;;;;5.10;3.33;;;;;;;;;;767994;183;817735;-65
2024/04/19 08:09:37;;;;;;;5.90;3.30;;;;;;;;;;763672;182;920202;-66
2024/04/19 08:12:03;;;;;;;6.60;3.43;;;;;;;;;;765879;182;871092;-66
2024/04/19 08:14:29;;;;;;;5.10;3.43;;;;;;;;;;769116;180;914730;-65
2024/04/19 08:16:55;;;;;;;5.80;3.83;;;;;;;;;;763850;182;800320;-66
2024/04/19 08:19:21;;;;;;;4.63;3.10;;;;;;;;;;764838;182;915622;-66
2024/04/19 08:21:46;;;;;;;4.70;3.47;;;;;;;;;;771465;182;917860;-66
2024/04/19 08:24:12;;;;;;;4.80;2.93;;;;;;;;;;767214;181;634408;-66
2024/04/19 08:26:38;;;;;;;5.63;2.93;;;;;;;;;;765861;182;916373;-67
2024/04/19 08:29:04;;;;;;;4.13;3.03;;;;;;;;;;760439;184;817941;-67
2024/04/19 08:31:30;;;;;;;5.53;3.70;;;;;;;;;;753135;184;793196;-66
2024/04/19 08:33:56;;;;;;;6.07;3.60;;;;;;;;;;754547;184;817843;-66
2024/04/19 08:36:22;;;;;;;8.50;5.10;;;;;;;;;;761652;184;681294;-67
2024/04/19 08:38:48;;;;;;;7.63;5.40;;;;;;;;;;753481;183;919992;-65
2024/04/19 08:41:13;;;;;;;6.90;3.83;;;;;;;;;;762586;183;820807;-67
2024/04/19 08:43:39;;;;;;;6.77;4.60;;;;;;;;;;766230;182;761715;-67
2024/04/19 08:46:07;;;;;;;5.27;2.97;;;;;;;;;;762824;184;714828;-67
2024/04/19 08:48:31;;;;;;;3.70;2.90;;;;;;;;;;762720;180;918666;-67
2024/04/19 08:50:57;;;;;;;8.83;3.93;;;;;;;;;;765625;180;917153;-67
2024/04/19 08:53:23;;;;;;;5.27;4.17;;;;;;;;;;769403;183;696948;-66
2024/04/19 08:55:49;;;;;;;5.50;4.00;;;;;;;;;;769370;182;710700;-66
2024/04/19 08:58:15;;;;;;;8.40;4.20;;;;;;;;;;766894;183;881075;-67
2024/04/19 09:00:41;;;;;;;6.30;4.20;;;;;;;;;;768293;182;920606;-65
2024/04/19 09:03:06;;;;;;;5.80;4.20;;;;;;;;;;766122;183;850941;-66
2024/04/19 09:05:32;;;;;;;5.80;3.95;;;;;;;;;;767804;183;920707;-67
2024/04/19 09:07:58;;;;;;;6.80;4.13;;;;;;;;;;771645;182;815876;-66
2024/04/19 09:10:24;;;;;;;6.07;3.90;;;;;;;;;;766896;182;812178;-66
2024/04/19 09:12:50;;;;;;;5.90;4.50;;;;;;;;;;768141;183;840735;-67
2024/04/19 09:15:16;;;;;;;6.27;3.90;;;;;;;;;;768201;182;807868;-67
2024/04/19 09:17:42;;;;;;;7.47;4.10;;;;;;;;;;766493;184;771606;-66
2024/04/19 09:20:08;;;;;;;14.10;4.63;;;;;;;;;;763406;182;917301;-67
2024/04/19 09:22:34;;;;;;;8.80;4.97;;;;;;;;;;766727;183;819410;-67
2024/04/19 09:24:59;;;;;;;3.80;3.20;;;;;;;;;;771335;182;616003;-65
2024/04/19 09:27:27;;;;;;;7.15;3.83;;;;;;;;;;766776;182;815443;-66
2024/04/19 09:29:51;;;;;;;6.67;4.53;;;;;;;;;;766969;182;819388;-65
2024/04/19 09:32:20;;;;;;;6.43;4.30;;;;;;;;;;770385;182;874355;-67
2024/04/19 09:34:46;;;;;;;7.50;4.33;;;;;;;;;;767003;183;717675;-66
2024/04/19 09:37:11;;;;;;;5.40;4.33;;;;;;;;;;762985;182;915894;-65
2024/04/19 09:39:38;;;;;;;9.17;5.13;;;;;;;;;;768088;182;879709;-66
2024/04/19 09:42:03;;;;;;;8.20;6.03;;;;;;;;;;771909;180;618740;-65
2024/04/19 09:44:29;;;;;;;8.80;6.00;;;;;;;;;;765987;183;815874;-66
2024/04/19 09:46:55;;;;;;;9.37;5.77;;;;;;;;;;768891;182;617751;-66
2024/04/19 09:49:21;;;;;;;7.73;4.93;;;;;;;;;;773458;182;616072;-66
2024/04/19 09:51:47;;;;;;;10.13;5.33;;;;;;;;;;768490;182;622593;-66
2024/04/19 09:54:13;;;;;;;7.40;5.57;;;;;;;;;;767994;182;632522;-66
2024/04/19 09:56:48;;;;;;;11.40;7.13;;;;;;;;;;767877;183;919248;-65
2024/04/19 09:59:14;;;;;;;9.63;6.00;;;;;;;;;;766802;182;817652;-65
2024/04/19 10:01:40;;;;;;;8.93;6.45;;;;;;;;;;766158;182;917871;-65
2024/04/19 10:04:08;;;;;;;6.57;5.00;;;;;;;;;;768718;182;774790;-65
2024/04/19 10:06:35;;;;;;;8.30;5.80;;;;;;;;;;773480;182;636063;-65
2024/04/19 10:08:57;;;;;;;7.23;5.57;;;;;;;;;;766007;182;816135;-65
2024/04/19 10:11:23;;;;;;;8.00;5.70;;;;;;;;;;767496;182;818424;-65
2024/04/19 10:13:49;;;;;;;8.53;6.07;;;;;;;;;;769614;182;909519;-65
2024/04/19 10:16:15;;;;;;;11.77;6.40;;;;;;;;;;767055;182;715743;-66
2024/04/19 10:18:41;;;;;;;7.90;4.60;;;;;;;;;;767999;182;819192;-66
2024/04/19 10:21:07;;;;;;;6.97;6.10;;;;;;;;;;772825;182;714120;-65
2024/04/19 10:23:33;;;;;;;9.67;5.03;;;;;;;;;;765955;180;915212;-66
2024/04/19 10:25:59;;;;;;;6.33;4.53;;;;;;;;;;766128;182;758157;-65
2024/04/19 10:28:24;;;;;;;5.80;3.77;;;;;;;;;;763895;182;936476;-66
2024/04/19 10:30:50;;;;;;;6.70;4.37;;;;;;;;;;772921;182;628267;-66
2024/04/19 10:33:16;;;;;;;12.60;5.40;;;;;;;;;;767692;182;820103;-66
2024/04/19 10:35:44;;;;;;;5.57;4.10;;;;;;;;;;765156;182;917233;-66
2024/04/19 10:38:08;;;;;;;8.30;3.60;;;;;;;;;;772295;182;809105;-66
2024/04/19 10:40:33;;;;;;;4.83;3.30;;;;;;;;;;766542;182;748755;-67
2024/04/19 10:43:00;;;;;;;4.77;2.77;;;;;;;;;;767771;182;772636;-67
2024/04/19 10:45:26;;;;;;;7.13;3.30;;;;;;;;;;772797;182;617210;-66
2024/04/19 10:47:52;;;;;;;3.97;2.70;;;;;;;;;;763785;182;883882;-67
2024/04/19 10:50:18;;;;;;;6.53;3.10;;;;;;;;;;763378;182;934986;-66
2024/04/19 10:52:43;;;;;;;5.37;3.70;;;;;;;;;;768633;182;875996;-67
2024/04/19 10:55:09;;;;;;;5.27;3.70;;;;;;;;;;766212;183;918428;-67
2024/04/19 10:57:35;;;;;;;5.63;4.17;;;;;;;;;;763429;182;932501;-67
2024/04/19 11:00:01;;;;;;;7.20;3.77;;;;;;;;;;766978;182;713420;-67
2024/04/19 11:02:27;;;;;;;5.43;3.20;;;;;;;;;;770681;183;719430;-66
2024/04/19 11:04:53;;;;;;;4.57;3.30;;;;;;;;;;764593;182;918182;-65
2024/04/19 11:07:21;;;;;;;5.37;3.67;;;;;;;;;;768173;182;618791;-67
2024/04/19 11:09:46;;;;;;;5.60;3.80;;;;;;;;;;770546;183;918403;-67
2024/04/19 11:12:12;;;;;;;5.00;3.57;;;;;;;;;;767423;183;633098;-67
2024/04/19 11:14:38;;;;;;;6.43;3.40;;;;;;;;;;768138;181;908514;-67
2024/04/19 11:17:04;;;;;;;5.27;3.80;;;;;;;;;;770616;182;905761;-67
2024/04/19 11:19:32;;;;;;;4.90;3.20;;;;;;;;;;768643;182;769412;-67
2024/04/19 11:21:58;;;;;;;4.90;3.80;;;;;;;;;;769881;182;697917;-66
2024/04/19 11:24:22;;;;;;;6.33;3.67;;;;;;;;;;766233;182;910688;-66
2024/04/19 11:26:48;;;;;;;7.40;3.80;;;;;;;;;;772773;182;623965;-66
2024/04/19 11:29:13;;;;;;;6.23;4.10;;;;;;;;;;770190;182;695322;-66
2024/04/19 11:31:39;;;;;;;7.10;4.00;;;;;;;;;;769353;182;617939;-66
2024/04/19 11:34:05;;;;;;;7.10;3.77;;;;;;;;;;772470;182;706910;-66
2024/04/19 11:36:31;;;;;;;5.93;4.17;;;;;;;;;;764998;182;874584;-66
2024/04/19 11:38:57;;;;;;;6.00;4.50;;;;;;;;;;767769;182;888043;-66
2024/04/19 11:41:23;;;;;;;4.80;4.00;;;;;;;;;;771390;183;819489;-67
2024/04/19 11:43:49;;;;;;;6.27;4.40;;;;;;;;;;767470;182;697625;-66
2024/04/19 11:46:19;;;;;;;7.97;4.70;;;;;;;;;;766610;182;825266;-67
2024/04/19 11:48:44;;;;;;;5.33;4.03;;;;;;;;;;763722;181;918811;-67
2024/04/19 11:51:11;;;;;;;6.87;4.57;;;;;;;;;;770055;182;844059;-66
2024/04/19 11:53:36;;;;;;;7.47;4.60;;;;;;;;;;765332;181;791702;-65
2024/04/19 11:56:02;;;;;;;6.40;4.10;;;;;;;;;;766703;182;795978;-67
2024/04/19 11:58:27;;;;;;;12.27;4.10;;;;;;;;;;770916;182;699273;-66
2024/04/19 12:00:53;;;;;;;6.93;4.60;;;;;;;;;;763234;183;912115;-67
2024/04/19 12:03:19;;;;;;;3.60;2.57;;;;;;;;;;767971;180;690653;-66
2024/04/19 12:05:45;;;;;;;4.83;3.30;;;;;;;;;;771411;182;614971;-67
2024/04/19 12:08:11;;;;;;;7.53;2.97;;;;;;;;;;767577;182;859495;-68
2024/04/19 12:10:37;;;;;;;5.67;3.10;;;;;;;;;;763604;182;915430;-68
2024/04/19 12:13:02;;;;;;;3.73;2.60;;;;;;;;;;772782;182;608848;-67
2024/04/19 12:15:28;;;;;;;5.37;3.13;;;;;;;;;;766830;183;628317;-66
2024/04/19 12:17:57;;;;;;;5.45;3.20;;;;;;;;;;769493;182;616508;-66
2024/04/19 12:20:20;;;;;;;5.50;2.83;;;;;;;;;;764852;183;858422;-67
2024/04/19 12:22:46;;;;;;;4.33;3.00;;;;;;;;;;769639;182;861151;-68
2024/04/19 12:25:12;;;;;;;4.67;3.00;;;;;;;;;;763521;182;918722;-67
2024/04/19 12:27:37;;;;;;;5.57;3.00;;;;;;;;;;771374;180;746382;-67
2024/04/19 12:30:04;;;;;;;4.13;2.80;;;;;;;;;;771601;182;732699;-67
2024/04/19 12:32:29;;;;;;;4.37;3.00;;;;;;;;;;767989;182;770234;-67
2024/04/19 12:34:55;;;;;;;6.60;3.33;;;;;;;;;;766151;182;917058;-67
2024/04/19 12:37:21;;;;;;;4.13;3.20;;;;;;;;;;771417;180;713361;-67
2024/04/19 12:39:47;;;;;;;5.13;3.93;;;;;;;;;;768573;182;802157;-68
2024/04/19 12:42:13;;;;;;;3.77;3.00;;;;;;;;;;769454;182;617229;-68
2024/04/19 12:44:39;;;;;;;4.43;3.40;;;;;;;;;;771122;182;716947;-67
2024/04/19 12:47:05;;;;;;;5.00;3.73;;;;;;;;;;768502;182;753548;-68
2024/04/19 12:49:30;;;;;;;6.30;3.80;;;;;;;;;;766527;182;799163;-66
2024/04/19 12:51:57;;;;;;;6.70;3.33;;;;;;;;;;766205;182;788900;-68
2024/04/19 12:54:22;;;;;;;7.63;3.70;;;;;;;;;;768600;182;926335;-67
2024/04/19 12:56:48;;;;;;;5.00;3.43;;;;;;;;;;764829;182;813942;-67
2024/04/19 12:59:14;;;;;;;5.20;3.70;;;;;;;;;;767063;183;713801;-68
2024/04/19 13:01:40;;;;;;;5.70;3.93;;;;;;;;;;769992;182;811889;-67
2024/04/19 13:04:06;;;;;;;6.07;3.70;;;;;;;;;;766481;182;918033;-68
2024/04/19 13:06:33;;;;;;;5.47;4.53;;;;;;;;;;766809;182;817689;-67
2024/04/19 13:08:58;;;;;;;5.97;3.87;;;;;;;;;;771565;182;684954;-66
2024/04/19 13:11:23;;;;;;;6.07;3.00;;;;;;;;;;766256;182;917699;-65
2024/04/19 13:13:49;;;;;;;5.03;2.50;;;;;;;;;;766361;182;900592;-67
2024/04/19 13:16:16;;;;;;;5.25;2.67;;;;;;;;;;768814;182;789504;-67
2024/04/19 13:18:41;;;;;;;4.87;2.60;;;;;;;;;;773536;180;615830;-66
2024/04/19 13:21:07;;;;;;;5.63;2.50;;;;;;;;;;763324;182;865981;-66
2024/04/19 13:23:33;;;;;;;4.70;2.43;;;;;;;;;;764820;182;816915;-67
2024/04/19 13:25:59;;;;;;;5.70;2.77;;;;;;;;;;770306;182;863318;-67
2024/04/19 13:28:25;;;;;;;3.97;3.00;;;;;;;;;;765520;182;921034;-67
2024/04/19 13:30:51;;;;;;;5.93;3.43;;;;;;;;;;766384;182;717924;-68
2024/04/19 13:33:16;;;;;;;6.00;4.10;;;;;;;;;;772170;182;914630;-67
2024/04/19 13:35:42;;;;;;;6.00;3.83;;;;;;;;;;767344;182;766038;-68
2024/04/19 13:38:08;;;;;;;8.87;4.03;;;;;;;;;;767155;181;818184;-67
2024/04/19 13:40:34;;;;;;;5.57;4.03;;;;;;;;;;769765;182;918712;-68
2024/04/19 13:43:00;;;;;;;7.40;4.17;;;;;;;;;;767680;182;707089;-67
2024/04/19 13:45:26;;;;;;;5.57;4.75;;;;;;;;;;766669;182;918130;-67
2024/04/19 13:47:52;;;;;;;4.17;3.43;;;;;;;;;;767195;181;815412;-68
2024/04/19 13:50:18;;;;;;;5.07;3.90;;;;;;;;;;764532;183;718471;-67
2024/04/19 13:52:43;;;;;;;5.90;4.10;;;;;;;;;;764306;181;648431;-67
2024/04/19 13:55:09;;;;;;;6.40;5.10;;;;;;;;;;769530;182;629760;-67
2024/04/19 13:57:35;;;;;;;5.20;3.70;;;;;;;;;;770896;182;914210;-67
2024/04/19 14:00:01;;;;;;;5.20;4.40;;;;;;;;;;763599;182;922440;-66
2024/04/19 14:02:27;;;;;;;5.53;4.90;;;;;;;;;;765812;182;856974;-67
2024/04/19 14:04:53;;;;;;;5.28;3.62;;;;;;;;;;769668;182;796230;-68
2024/04/19 14:07:18;;;;;;;8.33;4.40;;;;;;;;;;768807;182;711826;-68
2024/04/19 14:09:45;;;;;;;8.07;4.65;;;;;;;;;;765056;182;819436;-67
2024/04/19 14:12:10;;;;;;;5.70;4.17;;;;;;;;;;769788;181;838472;-67
2024/04/19 14:14:36;;;;;;;4.90;4.03;;;;;;;;;;767773;182;818766;-68
2024/04/19 14:17:02;;;;;;;5.70;4.37;;;;;;;;;;764926;183;818074;-66
2024/04/19 14:19:28;;;;;;;7.87;4.87;;;;;;;;;;766282;182;861713;-67
2024/04/19 14:21:53;;;;;;;6.50;4.00;;;;;;;;;;767709;183;911188;-66
2024/04/19 14:24:19;;;;;;;9.73;4.50;;;;;;;;;;767525;183;816537;-67
2024/04/19 14:26:45;;;;;;;5.13;3.77;;;;;;;;;;768715;182;645785;-67
2024/04/19 14:29:11;;;;;;;5.93;3.97;;;;;;;;;;770683;182;847518;-67
2024/04/19 14:31:37;;;;;;;7.33;3.77;;;;;;;;;;769379;182;617728;-67